Dearborn, MI (48128)

3:17 PM EST on December 28, 2014 (GMT -0500)
Dearborn Hills | Change Station
CLOSE
Current Station
Personal Weather Station
Location: Dearborn, MI
Elevation: 636 ft
Nearby Weather Stations

Elev 636 ft 42.31 °N, 83.27 °W | Updated 3 seconds ago

Partly Cloudy
Partly Cloudy
36.5 °F
Feels Like 36 °F
N
3.0
Wind Variable Wind from NW
Gusts 3.0 mph

Today
High -- | Low -- °F
--% Chance of Precip.
Yesterday
High -- | Low -- °F
Precip. -- in
8:01 AM 5:07 PM
Waxing Crescent, 51% visible
Pressure 30.11 in
Visibility 10.0 miles
Clouds Few 2500 ft
Mostly Cloudy 24000 ft
Windchill 36 °F
Dew Point -2 °F
Humidity 19%
Rainfall 0.00 in
Snow Depth Not available.
UV 1 out of 12
Pollen .10 out of 12
Air Quality Not available.
Flu Activity Not available.
METAR KDTW 281953Z 28007KT 10SM FEW025 BKN240 03/M05 A3009 RMK AO2 SLP195 T00281050 $

More Conditions Fewer Conditions

Pressure 30.11 in
Visibility 10.0 miles
Clouds Few 2500 ft
Mostly Cloudy 24000 ft
Windchill 36 °F
Dew Point -2 °F
Humidity 19%
Rainfall 0.00 in
Snow Depth Not available.
UV 1 out of 12
Pollen .10 out of 12
Air Quality Not available.
Flu Activity Not available.
METAR KDTW 281953Z 28007KT 10SM FEW025 BKN240 03/M05 A3009 RMK AO2 SLP195 T00281050 $

More Conditions Fewer Conditions

10-Day Weather Forecast

Almanac

Astronomy

Dec. 28, 2014 Rise Set
Actual Time
Civil Twilight
Nautical Twilight
Astronomical Twilight
Moon
Length of Visible Light
Length of Day
Tomorrow will be .
, % of the Moon is Illuminated

Today's Extremes

State Highs State Lows

Community

WunderPhotos

Upload Photos

1,781,410 photos uploaded!

WunderBlogs® & News

Nearby

Air Quality

  Air Quality AQ Index Pollutant
Not available.

Snow Depth

Station Depth Elevation

Earthquake Activity

City Distance Mag. Time & Date
Minimum magnitude displayed is 2.5.

Coastal Water Temperatures

Place Temperature

Nearby Weather Stations